Time;durP1;ratioP1;P1;durP2;ratioP2;P2;SDS_P1;SDS_P2;PMS_P1;PMS_P2;Temp;Humidity;BMP_temperature;BMP_pressure;BME280_temperature;BME280_humidity;BME280_pressure;Samples;Min_cycle;Max_cycle;Signal;HPM_P1;HPM_P2
2022/08/02 00:01:03;;;;;;;;;;;24.40;90.20;;;;;;5100938;28;19904;-88
2022/08/02 00:03:28;;;;;;;;;;;24.30;90.10;;;;;;5101040;28;19908;-88
2022/08/02 00:05:54;;;;;;;;;;;24.20;90.40;;;;;;5100761;28;19934;-88
2022/08/02 00:08:20;;;;;;;;;;;24.20;90.70;;;;;;5100711;28;19968;-88
2022/08/02 00:10:48;;;;;;;;;;;24.30;90.70;;;;;;5100612;28;19919;-88
2022/08/02 00:13:13;;;;;;;;;;;24.20;90.50;;;;;;5100991;28;19915;-88
2022/08/02 00:15:39;;;;;;;;;;;24.20;90.30;;;;;;5100607;28;19904;-88
2022/08/02 00:18:04;;;;;;;;;;;24.00;90.70;;;;;;5100716;28;19951;-88
2022/08/02 00:20:30;;;;;;;;;;;23.90;91.20;;;;;;5100235;28;19903;-88
2022/08/02 00:22:55;;;;;;;;;;;23.90;91.20;;;;;;5118333;28;20324;-88
2022/08/02 00:25:21;;;;;;;;;;;24.00;91.10;;;;;;5118323;28;19904;-88
2022/08/02 00:30:57;;;;;;;;;;;24.10;90.80;;;;;;5120607;28;19972;-88
2022/08/02 00:33:23;;;;;;;;;;;24.10;90.60;;;;;;5101771;28;19916;-88
2022/08/02 00:35:49;;;;;;;;;;;24.10;90.50;;;;;;5102386;28;20320;-88
2022/08/02 00:38:14;;;;;;;;;;;24.00;90.80;;;;;;5102387;28;19904;-88
2022/08/02 00:40:51;;;;;;;;;;;23.90;91.10;;;;;;5102530;28;19908;-88
2022/08/02 00:43:17;;;;;;;;;;;23.90;91.00;;;;;;5120967;28;19946;-88
2022/08/02 00:45:43;;;;;;;;;;;24.00;90.90;;;;;;5103975;28;19903;-88
2022/08/02 00:48:09;;;;;;;;;;;24.00;90.70;;;;;;5103570;28;19939;-88
2022/08/02 00:50:37;;;;;;;;;;;24.00;90.60;;;;;;5103580;28;19969;-88
2022/08/02 00:53:03;;;;;;;;;;;24.00;90.50;;;;;;5103424;28;19929;-88
2022/08/02 00:55:29;;;;;;;;;;;24.00;90.40;;;;;;5103889;28;20181;-88
2022/08/02 00:57:55;;;;;;;;;;;24.00;90.40;;;;;;5120857;28;20257;-88
2022/08/02 01:00:37;;;;;;;;;;;24.00;90.30;;;;;;5103783;28;19903;-88
2022/08/02 01:03:03;;;;;;;;;;;24.00;90.30;;;;;;5103666;28;19990;-88
2022/08/02 01:05:28;;;;;;;;;;;24.10;90.30;;;;;;5103661;28;19939;-88
2022/08/02 01:07:54;;;;;;;;;;;24.00;90.30;;;;;;5103786;28;19933;-88
2022/08/02 01:10:38;;;;;;;;;;;24.00;90.20;;;;;;5103355;28;19998;-89
2022/08/02 01:13:04;;;;;;;;;;;24.00;90.20;;;;;;5102827;28;19990;-89
2022/08/02 01:15:30;;;;;;;;;;;24.00;90.20;;;;;;5103283;28;19937;-89
2022/08/02 01:18:05;;;;;;;;;;;24.00;90.20;;;;;;5103003;28;19904;-89
2022/08/02 01:20:43;;;;;;;;;;;24.00;90.20;;;;;;5102703;28;19915;-89
2022/08/02 01:23:34;;;;;;;;;;;24.00;90.20;;;;;;5100482;28;19903;-89
2022/08/02 01:26:18;;;;;;;;;;;24.00;90.20;;;;;;5101037;28;20295;-89
2022/08/02 01:28:50;;;;;;;;;;;24.00;90.20;;;;;;5100306;28;19911;-89
2022/08/02 01:31:28;;;;;;;;;;;23.90;90.20;;;;;;5117650;28;19903;-89
2022/08/02 01:33:59;;;;;;;;;;;23.90;90.10;;;;;;5100215;28;19915;-89
2022/08/02 01:36:30;;;;;;;;;;;23.90;90.20;;;;;;5100666;28;19904;-89
2022/08/02 01:38:56;;;;;;;;;;;23.90;90.10;;;;;;5100760;28;19903;-89
2022/08/02 01:41:24;;;;;;;;;;;23.90;90.10;;;;;;5099894;28;20048;-89
2022/08/02 01:43:52;;;;;;;;;;;23.90;90.10;;;;;;5118605;28;19911;-88
2022/08/02 01:46:19;;;;;;;;;;;23.90;90.20;;;;;;5102862;28;19972;-89
2022/08/02 01:49:03;;;;;;;;;;;23.90;90.10;;;;;;5102308;28;19918;-88
2022/08/02 01:54:17;;;;;;;;;;;23.80;90.00;;;;;;5119327;28;19915;-88
2022/08/02 01:56:50;;;;;;;;;;;23.80;90.00;;;;;;5102846;28;19910;-88
2022/08/02 01:59:19;;;;;;;;;;;23.80;90.10;;;;;;5102445;28;19904;-88
2022/08/02 02:01:46;;;;;;;;;;;23.80;90.10;;;;;;5120210;28;19904;-88
2022/08/02 02:04:13;;;;;;;;;;;23.80;90.10;;;;;;5102330;28;19928;-89
2022/08/02 02:06:39;;;;;;;;;;;23.80;90.10;;;;;;5102546;28;19907;-88
2022/08/02 02:09:05;;;;;;;;;;;23.80;90.00;;;;;;5102249;28;19912;-89
2022/08/02 02:11:31;;;;;;;;;;;23.80;90.10;;;;;;5102610;28;19904;-89
2022/08/02 02:13:57;;;;;;;;;;;23.80;90.00;;;;;;5102114;28;20383;-89
2022/08/02 02:16:39;;;;;;;;;;;23.80;90.00;;;;;;5102894;28;19903;-90
2022/08/02 02:19:06;;;;;;;;;;;23.80;90.00;;;;;;5102131;28;19904;-90
2022/08/02 02:21:31;;;;;;;;;;;23.70;90.00;;;;;;5102132;28;19904;-90
2022/08/02 02:23:57;;;;;;;;;;;23.70;90.00;;;;;;5101914;28;20006;-90
2022/08/02 02:26:33;;;;;;;;;;;23.70;90.00;;;;;;5101801;28;19903;-90
2022/08/02 02:29:01;;;;;;;;;;;23.70;90.00;;;;;;5101691;28;19918;-90
2022/08/02 02:31:27;;;;;;;;;;;23.70;90.00;;;;;;5101941;28;19903;-90
2022/08/02 02:33:58;;;;;;;;;;;23.70;90.10;;;;;;5101566;28;19925;-90
2022/08/02 02:36:55;;;;;;;;;;;23.70;90.00;;;;;;5102008;28;19942;-91
2022/08/02 02:39:22;;;;;;;;;;;23.60;90.00;;;;;;5119146;28;19915;-90
2022/08/02 02:41:48;;;;;;;;;;;23.60;90.00;;;;;;5101706;28;20154;-90
2022/08/02 02:44:16;;;;;;;;;;;23.60;90.00;;;;;;5101357;28;19907;-90
2022/08/02 02:47:06;;;;;;;;;;;23.50;90.30;;;;;;5101599;28;19903;-90
2022/08/02 02:49:32;;;;;;;;;;;23.50;90.30;;;;;;5119043;28;19964;-89
2022/08/02 02:51:58;;;;;;;;;;;23.50;90.60;;;;;;5101580;28;19931;-90
2022/08/02 02:54:25;;;;;;;;;;;23.50;90.20;;;;;;5101032;28;19907;-89
2022/08/02 02:57:11;;;;;;;;;;;23.50;90.20;;;;;;5101385;28;19966;-89
2022/08/02 02:59:38;;;;;;;;;;;23.50;90.20;;;;;;5101122;28;19903;-90
2022/08/02 03:02:04;;;;;;;;;;;23.50;90.20;;;;;;5101284;28;19903;-90
2022/08/02 03:04:29;;;;;;;;;;;23.50;90.20;;;;;;5118668;28;19915;-90
2022/08/02 03:07:06;;;;;;;;;;;23.40;90.20;;;;;;5101401;28;19904;-90
2022/08/02 03:09:31;;;;;;;;;;;23.40;90.20;;;;;;5118701;28;19911;-90
2022/08/02 03:11:57;;;;;;;;;;;23.40;90.20;;;;;;5101353;28;19904;-90
2022/08/02 03:14:22;;;;;;;;;;;23.40;90.20;;;;;;5101159;28;20246;-90
2022/08/02 03:16:54;;;;;;;;;;;23.40;90.20;;;;;;5101512;28;19914;-90
2022/08/02 03:19:20;;;;;;;;;;;23.40;90.10;;;;;;5101095;28;19903;-90
2022/08/02 03:21:47;;;;;;;;;;;23.40;90.30;;;;;;5118938;28;20241;-90
2022/08/02 03:24:12;;;;;;;;;;;23.40;90.20;;;;;;5101712;28;19961;-90
2022/08/02 03:26:38;;;;;;;;;;;23.40;90.20;;;;;;5100849;28;19911;-90
2022/08/02 03:29:04;;;;;;;;;;;23.40;90.20;;;;;;5101013;28;20348;-90
2022/08/02 03:31:29;;;;;;;;;;;23.40;90.20;;;;;;5100529;28;19904;-90
2022/08/02 03:34:11;;;;;;;;;;;23.30;90.20;;;;;;5118439;28;19918;-91
2022/08/02 03:36:37;;;;;;;;;;;23.30;90.20;;;;;;5100663;28;20150;-91
2022/08/02 03:39:04;;;;;;;;;;;23.30;90.30;;;;;;5100890;28;19904;-90
2022/08/02 03:41:29;;;;;;;;;;;23.30;90.20;;;;;;5100555;28;19903;-91
2022/08/02 03:43:56;;;;;;;;;;;23.30;90.50;;;;;;5100848;28;19929;-91
2022/08/02 03:46:22;;;;;;;;;;;23.30;90.20;;;;;;5100385;28;19931;-90
2022/08/02 03:48:49;;;;;;;;;;;23.30;90.20;;;;;;5099897;28;20444;-90
2022/08/02 03:51:15;;;;;;;;;;;23.30;90.20;;;;;;5117895;28;19904;-90
2022/08/02 03:53:42;;;;;;;;;;;23.30;90.10;;;;;;5100509;28;19957;-91
2022/08/02 03:56:08;;;;;;;;;;;23.30;90.20;;;;;;5117683;28;20406;-90
2022/08/02 03:58:34;;;;;;;;;;;23.30;90.20;;;;;;5101741;28;19904;-90
2022/08/02 04:00:59;;;;;;;;;;;23.20;90.10;;;;;;5100146;28;19904;-90
2022/08/02 04:03:25;;;;;;;;;;;23.20;90.10;;;;;;5101142;28;20265;-90
2022/08/02 04:05:51;;;;;;;;;;;23.20;90.20;;;;;;5104102;28;19994;-90
2022/08/02 04:08:17;;;;;;;;;;;23.20;90.10;;;;;;5104464;28;19961;-90
2022/08/02 04:13:29;;;;;;;;;;;23.20;90.20;;;;;;5121804;28;20283;-90
2022/08/02 04:15:56;;;;;;;;;;;23.20;90.00;;;;;;5121890;28;19907;-90
2022/08/02 04:18:24;;;;;;;;;;;23.20;90.00;;;;;;5103688;28;20328;-90
2022/08/02 04:20:50;;;;;;;;;;;23.20;90.00;;;;;;5103476;28;19904;-90
2022/08/02 04:23:17;;;;;;;;;;;23.20;89.90;;;;;;5104314;28;19965;-90
2022/08/02 04:25:44;;;;;;;;;;;23.20;89.70;;;;;;5103605;28;19911;-90
2022/08/02 04:28:10;;;;;;;;;;;23.20;89.90;;;;;;5121698;28;19903;-90
2022/08/02 04:30:36;;;;;;;;;;;23.20;89.70;;;;;;5104571;28;19908;-91
2022/08/02 04:33:02;;;;;;;;;;;23.20;89.60;;;;;;5120070;28;19965;-90
2022/08/02 04:35:27;;;;;;;;;;;23.20;89.60;;;;;;5103047;28;19904;-91
2022/08/02 04:37:53;;;;;;;;;;;23.30;89.60;;;;;;5103634;28;20185;-91
2022/08/02 04:40:37;;;;;;;;;;;23.30;89.50;;;;;;5103050;28;19904;-91
2022/08/02 04:43:03;;;;;;;;;;;23.30;89.50;;;;;;5103118;28;20276;-90
2022/08/02 04:45:29;;;;;;;;;;;23.30;89.40;;;;;;5103432;28;19903;-90
2022/08/02 04:47:54;;;;;;;;;;;23.30;89.40;;;;;;5103239;28;20254;-91
2022/08/02 04:50:22;;;;;;;;;;;23.30;89.20;;;;;;5120801;28;19922;-91
2022/08/02 04:52:48;;;;;;;;;;;23.30;89.10;;;;;;5103560;28;19915;-90
2022/08/02 04:55:13;;;;;;;;;;;23.30;88.90;;;;;;5103085;28;20145;-91
2022/08/02 04:57:55;;;;;;;;;;;23.40;88.70;;;;;;5102760;28;19994;-90
2022/08/02 05:00:22;;;;;;;;;;;23.40;88.60;;;;;;5102795;28;19903;-90
2022/08/02 05:02:48;;;;;;;;;;;23.40;88.40;;;;;;5102769;28;19904;-90
2022/08/02 05:05:14;;;;;;;;;;;23.50;88.30;;;;;;5102807;28;19914;-91
2022/08/02 05:07:40;;;;;;;;;;;23.50;88.00;;;;;;5103034;28;19914;-90
2022/08/02 05:10:05;;;;;;;;;;;23.50;87.80;;;;;;5102479;28;20227;-90
2022/08/02 05:12:31;;;;;;;;;;;23.60;87.70;;;;;;5102443;28;20265;-90
2022/08/02 05:14:56;;;;;;;;;;;23.60;87.60;;;;;;5101675;28;19965;-90
2022/08/02 05:17:22;;;;;;;;;;;23.60;87.60;;;;;;5102291;28;19907;-90
2022/08/02 05:19:47;;;;;;;;;;;23.60;87.50;;;;;;5102568;28;19903;-90
2022/08/02 05:22:13;;;;;;;;;;;23.70;87.20;;;;;;5102237;28;19939;-90
2022/08/02 05:24:39;;;;;;;;;;;23.70;86.90;;;;;;5102188;28;19904;-90
2022/08/02 05:27:04;;;;;;;;;;;23.80;86.70;;;;;;5102383;28;19964;-90
2022/08/02 05:29:30;;;;;;;;;;;23.80;86.30;;;;;;5101839;28;19930;-90
2022/08/02 05:31:57;;;;;;;;;;;23.90;86.00;;;;;;5101474;28;19911;-90
2022/08/02 05:34:23;;;;;;;;;;;23.90;86.30;;;;;;5100261;28;19912;-90
2022/08/02 05:36:48;;;;;;;;;;;23.90;85.90;;;;;;5100417;28;19911;-90
2022/08/02 05:39:14;;;;;;;;;;;23.90;85.70;;;;;;5099750;28;19912;-90
2022/08/02 05:41:46;;;;;;;;;;;23.90;85.60;;;;;;5100642;28;19952;-90
2022/08/02 05:44:12;;;;;;;;;;;24.00;84.80;;;;;;5102604;28;20230;-89
2022/08/02 05:46:37;;;;;;;;;;;24.10;84.50;;;;;;5102435;28;20261;-89
2022/08/02 05:49:03;;;;;;;;;;;24.20;83.90;;;;;;5101985;28;19915;-89
2022/08/02 05:51:39;;;;;;;;;;;24.30;82.50;;;;;;5101431;28;19904;-89
2022/08/02 05:54:30;;;;;;;;;;;24.50;81.70;;;;;;5100917;28;19957;-89
2022/08/02 05:56:58;;;;;;;;;;;24.60;80.70;;;;;;5101902;28;19904;-89
2022/08/02 05:59:39;;;;;;;;;;;24.70;79.70;;;;;;5100903;28;19947;-89
2022/08/02 06:02:12;;;;;;;;;;;24.80;78.70;;;;;;5101466;28;19915;-89
2022/08/02 06:04:58;;;;;;;;;;;25.00;77.60;;;;;;5101224;28;19903;-89
2022/08/02 06:07:24;;;;;;;;;;;25.10;76.50;;;;;;5101047;28;20165;-89
2022/08/02 06:09:50;;;;;;;;;;;25.20;75.70;;;;;;5100960;28;19907;-89
2022/08/02 06:12:16;;;;;;;;;;;25.30;74.90;;;;;;5118286;28;19911;-89
2022/08/02 06:14:41;;;;;;;;;;;25.40;74.70;;;;;;5119079;28;19903;-89
2022/08/02 06:17:15;;;;;;;;;;;25.50;73.70;;;;;;5100495;28;19904;-89
2022/08/02 06:19:41;;;;;;;;;;;25.60;73.00;;;;;;5100359;28;20299;-89
2022/08/02 06:22:16;;;;;;;;;;;25.70;71.50;;;;;;5099944;28;19987;-89
2022/08/02 06:24:45;;;;;;;;;;;25.90;71.00;;;;;;5117426;28;19915;-89
2022/08/02 06:27:26;;;;;;;;;;;26.00;69.90;;;;;;5099475;28;20001;-89
2022/08/02 06:29:52;;;;;;;;;;;26.10;69.20;;;;;;5100047;28;19915;-90
2022/08/02 06:32:18;;;;;;;;;;;26.20;68.40;;;;;;5100009;28;19973;-89
2022/08/02 06:34:45;;;;;;;;;;;26.30;67.70;;;;;;5100078;28;19903;-89
2022/08/02 06:37:26;;;;;;;;;;;26.50;67.10;;;;;;5117531;28;19904;-89
2022/08/02 06:39:58;;;;;;;;;;;26.60;66.40;;;;;;5099567;28;20316;-89
2022/08/02 06:42:32;;;;;;;;;;;26.70;65.40;;;;;;5099405;28;20015;-89
2022/08/02 06:44:57;;;;;;;;;;;26.90;64.30;;;;;;5099535;28;19903;-90
2022/08/02 06:47:24;;;;;;;;;;;27.00;63.50;;;;;;5100079;28;19904;-89
2022/08/02 06:49:49;;;;;;;;;;;27.20;63.10;;;;;;5116908;28;19972;-90
2022/08/02 06:52:15;;;;;;;;;;;27.30;62.10;;;;;;5098457;28;19912;-90
2022/08/02 06:54:41;;;;;;;;;;;27.50;62.00;;;;;;5097256;28;19904;-90
2022/08/02 06:57:08;;;;;;;;;;;27.60;61.50;;;;;;5098976;28;19965;-90
2022/08/02 06:59:34;;;;;;;;;;;28.00;60.50;;;;;;5099543;28;19950;-90
2022/08/02 07:02:01;;;;;;;;;;;28.30;59.30;;;;;;5098905;28;19951;-90
2022/08/02 07:04:27;;;;;;;;;;;28.90;58.30;;;;;;5099122;28;19914;-91
2022/08/02 07:06:52;;;;;;;;;;;29.40;57.00;;;;;;5099457;28;20002;-91
2022/08/02 07:09:19;;;;;;;;;;;29.70;56.00;;;;;;5099090;28;19908;-91
2022/08/02 07:11:45;;;;;;;;;;;30.10;55.30;;;;;;5116926;28;19994;-91
2022/08/02 07:14:10;;;;;;;;;;;30.60;54.50;;;;;;5099506;28;19976;-91
2022/08/02 07:16:37;;;;;;;;;;;30.70;54.10;;;;;;5098970;28;19958;-91
2022/08/02 07:19:04;;;;;;;;;;;31.00;53.80;;;;;;5098252;28;19915;-91
2022/08/02 07:21:30;;;;;;;;;;;31.40;53.10;;;;;;5099016;28;20468;-90
2022/08/02 07:23:55;;;;;;;;;;;31.70;52.70;;;;;;5099535;28;19980;-89
2022/08/02 07:26:21;;;;;;;;;;;31.70;52.30;;;;;;5098631;28;19911;-89
2022/08/02 07:28:47;;;;;;;;;;;31.70;52.20;;;;;;5098544;28;19994;-89
2022/08/02 07:31:12;;;;;;;;;;;31.80;52.00;;;;;;5098289;28;19903;-89
2022/08/02 07:33:38;;;;;;;;;;;32.20;51.80;;;;;;5098643;28;20517;-89
2022/08/02 07:36:04;;;;;;;;;;;32.30;51.50;;;;;;5098354;28;20197;-90
2022/08/02 07:38:30;;;;;;;;;;;32.50;51.00;;;;;;5099742;28;19992;-88
2022/08/02 07:40:56;;;;;;;;;;;32.70;50.70;;;;;;5101562;28;19911;-89
2022/08/02 07:43:21;;;;;;;;;;;33.00;50.60;;;;;;5120419;28;19911;-90
2022/08/02 07:45:47;;;;;;;;;;;33.20;50.10;;;;;;5102173;28;19935;-89
2022/08/02 07:48:13;;;;;;;;;;;33.50;49.70;;;;;;5102315;28;19915;-89
2022/08/02 07:50:39;;;;;;;;;;;33.80;49.20;;;;;;5101554;28;20008;-89
2022/08/02 07:53:04;;;;;;;;;;;33.90;48.90;;;;;;5102166;28;19934;-89
2022/08/02 07:55:31;;;;;;;;;;;34.10;48.80;;;;;;5102009;28;19903;-89
2022/08/02 07:57:59;;;;;;;;;;;34.10;48.50;;;;;;5102087;28;19904;-90
2022/08/02 08:00:24;;;;;;;;;;;33.90;48.30;;;;;;5101970;28;19904;-91
2022/08/02 08:02:50;;;;;;;;;;;33.30;48.90;;;;;;5098740;28;20039;-91
2022/08/02 08:05:15;;;;;;;;;;;33.20;49.10;;;;;;5094824;28;20255;-91
2022/08/02 08:07:41;;;;;;;;;;;33.60;48.80;;;;;;5095589;28;19971;-91
2022/08/02 08:10:07;;;;;;;;;;;34.00;48.40;;;;;;5095288;28;20006;-91
2022/08/02 08:12:33;;;;;;;;;;;34.10;48.20;;;;;;5096391;28;19908;-90
2022/08/02 08:14:58;;;;;;;;;;;34.30;48.00;;;;;;5093884;28;20080;-91
2022/08/02 08:17:24;;;;;;;;;;;34.50;47.90;;;;;;5096275;28;19914;-91
2022/08/02 08:19:50;;;;;;;;;;;34.90;47.40;;;;;;5095893;28;19903;-91
2022/08/02 08:22:15;;;;;;;;;;;35.10;46.70;;;;;;5096054;28;19912;-91
2022/08/02 08:24:41;;;;;;;;;;;35.20;46.30;;;;;;5095517;28;19973;-91
2022/08/02 08:27:13;;;;;;;;;;;35.40;46.20;;;;;;5096983;28;19903;-91
2022/08/02 08:29:39;;;;;;;;;;;35.50;46.20;;;;;;5095872;28;20316;-92
2022/08/02 08:32:04;;;;;;;;;;;35.60;46.10;;;;;;5095842;28;20006;-92
2022/08/02 08:34:30;;;;;;;;;;;35.70;45.90;;;;;;5094206;28;19908;-91
2022/08/02 08:36:56;;;;;;;2.03;1.90;;;35.60;45.70;;;;;;5094873;28;19903;-90
2022/08/02 08:39:22;;;;;;;2.28;1.90;;;35.30;45.70;;;;;;5093815;28;20166;-90
2022/08/02 08:41:47;;;;;;;3.08;2.08;;;35.20;45.90;;;;;;5092868;28;20169;-90
2022/08/02 08:44:13;;;;;;;2.53;2.00;;;35.40;45.50;;;;;;5094945;28;20247;-89
2022/08/02 08:46:42;;;;;;;2.20;2.00;;;35.80;45.30;;;;;;5094296;28;20194;-90
2022/08/02 08:49:14;;;;;;;4.07;2.00;;;35.80;45.10;;;;;;5094868;28;20236;-91
2022/08/02 08:51:42;;;;;;;2.28;1.95;;;35.60;45.00;;;;;;5095205;28;20503;-90
2022/08/02 08:54:11;;;;;;;2.90;2.00;;;35.60;45.10;;;;;;5094350;28;20438;-89
2022/08/02 08:56:39;;;;;;;3.10;2.28;;;35.80;45.00;;;;;;5094224;28;20412;-89
2022/08/02 08:59:05;;;;;;;2.15;1.95;;;35.90;44.80;;;;;;5093151;28;20205;-91
2022/08/02 09:01:33;;;;;;;3.65;2.10;;;36.00;44.80;;;;;;5095269;28;20208;-88
2022/08/02 09:03:59;;;;;;;3.05;2.17;;;36.20;44.60;;;;;;5096058;28;20182;-88
2022/08/02 09:06:25;;;;;;;2.15;1.90;;;36.30;44.50;;;;;;5095196;28;20248;-88
2022/08/02 09:08:51;;;;;;;2.30;1.80;;;36.30;44.40;;;;;;5095311;28;20291;-87
2022/08/02 09:11:23;;;;;;;1.70;1.60;;;36.20;44.40;;;;;;5112122;28;20169;-87
2022/08/02 09:13:52;;;;;;;2.40;1.92;;;35.90;44.70;;;;;;5113089;28;20229;-88
2022/08/02 09:16:39;;;;;;;4.85;1.80;;;35.90;44.90;;;;;;5112904;28;20453;-87
2022/08/02 09:19:24;;;;;;;3.55;1.85;;;36.10;44.80;;;;;;5093857;28;20206;-88
2022/08/02 09:22:06;;;;;;;3.38;1.95;;;36.30;44.60;;;;;;5093249;28;20239;-87
2022/08/02 09:24:50;;;;;;;2.83;1.98;;;36.30;44.80;;;;;;5092611;28;20407;-87
2022/08/02 09:27:21;;;;;;;5.45;2.05;;;36.10;44.80;;;;;;5093372;28;20174;-87
2022/08/02 09:29:53;;;;;;;8.13;2.30;;;35.90;45.20;;;;;;5093373;28;20212;-88
2022/08/02 09:32:19;;;;;;;4.15;2.05;;;35.90;45.30;;;;;;5094247;28;20163;-87
2022/08/02 09:34:47;;;;;;;3.30;2.10;;;36.00;45.30;;;;;;5093928;28;20227;-87
2022/08/02 09:37:30;;;;;;;2.83;1.80;;;35.90;45.30;;;;;;5093577;28;20231;-90
2022/08/02 09:39:59;;;;;;;5.97;2.00;;;35.70;45.30;;;;;;5093754;28;20181;-89
2022/08/02 09:42:26;;;;;;;4.50;1.90;;;35.50;45.40;;;;;;5094180;28;20440;-89
2022/08/02 09:44:53;;;;;;;3.95;2.05;;;35.10;45.70;;;;;;5092832;28;20548;-89
2022/08/02 09:47:19;;;;;;;3.45;2.00;;;34.60;46.20;;;;;;5093655;28;20527;-89
2022/08/02 09:49:46;;;;;;;3.90;2.00;;;34.10;46.40;;;;;;5093264;28;20366;-90
2022/08/02 09:52:13;;;;;;;2.38;1.80;;;33.70;46.80;;;;;;5111392;28;20491;-90
2022/08/02 09:54:39;;;;;;;4.25;1.92;;;33.30;47.10;;;;;;5093938;28;20665;-89
2022/08/02 09:57:06;;;;;;;2.47;1.70;;;33.00;47.50;;;;;;5092817;28;20544;-88
2022/08/02 09:59:33;;;;;;;8.57;2.10;;;32.70;47.90;;;;;;5092800;28;20322;-89
2022/08/02 10:02:00;;;;;;;5.15;2.20;;;32.40;48.10;;;;;;5091846;28;20177;-92
2022/08/02 10:04:28;;;;;;;4.53;2.10;;;32.20;48.50;;;;;;5110889;28;20206;-90
2022/08/02 10:06:55;;;;;;;2.20;1.70;;;32.10;48.50;;;;;;5090328;28;20653;-90
2022/08/02 10:09:22;;;;;;;3.50;2.03;;;32.00;48.80;;;;;;5090547;28;20202;-88
2022/08/02 10:11:48;;;;;;;3.13;1.95;;;31.80;49.20;;;;;;5109098;28;20215;-87
2022/08/02 10:14:14;;;;;;;2.25;1.80;;;31.60;49.40;;;;;;5091790;28;20532;-88
2022/08/02 10:16:41;;;;;;;3.58;1.92;;;31.40;49.50;;;;;;5092317;28;20165;-88
2022/08/02 10:19:08;;;;;;;2.40;1.80;;;31.20;49.90;;;;;;5092934;28;20265;-88
2022/08/02 10:22:17;;;;;;;4.47;2.13;;;31.20;50.20;;;;;;5092562;28;20166;-88
2022/08/02 10:24:44;;;;;;;3.45;1.90;;;31.10;50.30;;;;;;5091497;28;20272;-88
2022/08/02 10:27:18;;;;;;;2.60;1.88;;;31.10;50.30;;;;;;5092088;28;20414;-89
2022/08/02 10:29:46;;;;;;;3.38;2.10;;;31.10;50.40;;;;;;5090988;28;20217;-88
2022/08/02 10:32:31;;;;;;;3.60;1.90;;;31.10;50.50;;;;;;5092720;28;20256;-88
2022/08/02 10:35:08;;;;;;;2.45;1.95;;;30.90;50.70;;;;;;5092717;28;20170;-88
2022/08/02 10:37:38;;;;;;;1.80;1.70;;;30.90;50.70;;;;;;5109983;28;20260;-88
2022/08/02 10:40:05;;;;;;;2.60;1.90;;;30.90;50.80;;;;;;5092705;28;20181;-88
2022/08/02 10:43:00;;;;;;;2.55;2.08;;;30.80;51.20;;;;;;5109514;28;20310;-90
2022/08/02 10:45:26;;;;;;;3.28;2.05;;;30.70;51.30;;;;;;5091957;28;20293;-88
2022/08/02 10:48:13;;;;;;;2.10;1.90;;;30.70;51.30;;;;;;5090208;28;20534;-88
2022/08/02 10:50:45;;;;;;;2.78;2.38;;;30.70;51.40;;;;;;5110296;28;20194;-88
2022/08/02 10:53:33;;;;;;;2.42;2.03;;;30.70;51.50;;;;;;5091552;28;20697;-88
2022/08/02 10:56:01;;;;;;;2.78;2.10;;;30.70;51.50;;;;;;5108452;28;20179;-88
2022/08/02 10:58:32;;;;;;;2.75;2.55;;;30.60;51.70;;;;;;5089918;28;20567;-88
2022/08/02 11:01:04;;;;;;;3.50;2.15;;;30.60;51.70;;;;;;5090146;28;20240;-89
2022/08/02 11:03:40;;;;;;;3.80;2.92;;;30.60;51.90;;;;;;5109516;28;20186;-88
2022/08/02 11:06:11;;;;;;;3.50;2.20;;;30.60;51.90;;;;;;5091646;28;20201;-88
2022/08/02 11:08:37;;;;;;;4.95;2.08;;;30.60;52.10;;;;;;5091355;28;20453;-87
2022/08/02 11:11:09;;;;;;;2.50;2.30;;;30.60;52.10;;;;;;5092923;28;20255;-87
2022/08/02 11:14:01;;;;;;;6.15;2.65;;;30.50;52.20;;;;;;5092326;28;20470;-88
2022/08/02 11:16:54;;;;;;;3.40;2.33;;;30.50;52.40;;;;;;5093436;28;20174;-90
2022/08/02 11:19:24;;;;;;;3.42;2.15;;;30.50;52.50;;;;;;5092392;28;20177;-90
2022/08/02 11:22:10;;;;;;;2.30;2.10;;;30.50;52.60;;;;;;5092795;28;20174;-93
2022/08/02 11:24:39;;;;;;;4.50;2.55;;;30.40;52.60;;;;;;5092003;28;20481;-90
2022/08/02 11:27:16;;;;;;;5.72;2.50;;;30.40;52.90;;;;;;5093396;28;20235;-89
2022/08/02 11:29:44;;;;;;;2.72;2.10;;;30.40;53.20;;;;;;5093085;28;20554;-92
2022/08/02 11:32:24;;;;;;;3.10;2.20;;;30.40;53.00;;;;;;5094074;28;20166;-91
2022/08/02 11:34:53;;;;;;;4.13;2.30;;;30.30;53.00;;;;;;5093327;28;20174;-89
2022/08/02 11:37:39;;;;;;;3.03;2.67;;;30.30;53.20;;;;;;5109025;28;20169;-89
2022/08/02 11:40:17;;;;;;;3.97;2.25;;;30.30;53.20;;;;;;5092363;28;20182;-89
2022/08/02 11:42:49;;;;;;;4.82;2.80;;;30.20;53.40;;;;;;5090360;28;20178;-90
2022/08/02 11:45:16;;;;;;;4.50;2.83;;;30.20;53.40;;;;;;5091248;28;20296;-89
2022/08/02 11:47:47;;;;;;;3.42;2.88;;;30.20;53.60;;;;;;5089581;28;20182;-89
2022/08/02 11:50:13;;;;;;;4.65;2.53;;;30.10;53.30;;;;;;5090753;28;20197;-89
2022/08/02 11:52:39;;;;;;;2.63;2.10;;;30.20;53.60;;;;;;5091070;28;20502;-89
2022/08/02 11:55:10;;;;;;;7.03;2.78;;;30.10;53.60;;;;;;5088985;28;20269;-89
2022/08/02 11:57:36;;;;;;;3.03;2.30;;;30.00;53.80;;;;;;5091276;28;20177;-88
2022/08/02 12:00:13;;;;;;;2.78;2.47;;;30.00;53.90;;;;;;5091196;28;20531;-89
2022/08/02 12:02:46;;;;;;;2.95;2.10;;;30.00;54.00;;;;;;5091877;28;20178;-89
2022/08/02 12:05:16;;;;;;;5.07;2.50;;;30.00;54.10;;;;;;5090955;28;20555;-88
2022/08/02 12:07:44;;;;;;;4.00;2.70;;;30.00;54.10;;;;;;5091207;28;20210;-89
2022/08/02 12:10:16;;;;;;;3.60;2.28;;;30.00;54.10;;;;;;5092260;28;20359;-88
2022/08/02 12:12:53;;;;;;;3.45;2.75;;;30.00;54.20;;;;;;5088550;28;20225;-89
2022/08/02 12:15:48;;;;;;;4.82;2.40;;;30.00;54.30;;;;;;5089871;28;20203;-89
2022/08/02 12:21:03;;;;;;;2.88;2.53;;;30.00;54.50;;;;;;5107871;28;20228;-89
2022/08/02 12:23:29;;;;;;;3.17;2.30;;;30.00;54.50;;;;;;5092662;28;20190;-89
2022/08/02 12:26:05;;;;;;;2.92;2.30;;;29.90;54.60;;;;;;5093083;28;20304;-89
2022/08/02 12:28:37;;;;;;;2.60;2.40;;;29.90;54.50;;;;;;5094194;28;20417;-89
2022/08/02 12:31:05;;;;;;;2.60;2.40;;;29.90;54.50;;;;;;5093197;28;20198;-89
2022/08/02 12:33:54;;;;;;;3.97;2.25;;;29.90;54.60;;;;;;5110329;28;20669;-89
2022/08/02 12:36:22;;;;;;;3.30;2.30;;;29.90;54.60;;;;;;5094269;28;20528;-89
2022/08/02 12:39:00;;;;;;;3.92;2.38;;;29.90;54.60;;;;;;5094830;28;20281;-89
2022/08/02 12:41:28;;;;;;;3.80;2.10;;;29.90;54.70;;;;;;5093765;28;20181;-89
2022/08/02 12:43:55;;;;;;;3.22;2.40;;;29.80;54.70;;;;;;5111529;28;20253;-89
2022/08/02 12:46:22;;;;;;;6.07;2.70;;;29.80;54.80;;;;;;5111421;28;20436;-89
2022/08/02 12:48:49;;;;;;;5.50;2.30;;;29.80;54.90;;;;;;5093797;28;20166;-88
2022/08/02 12:51:22;;;;;;;4.78;2.42;;;29.80;55.00;;;;;;5092403;28;20430;-89
2022/08/02 12:53:49;;;;;;;11.05;2.63;;;29.80;55.00;;;;;;5091741;28;20181;-89
2022/08/02 12:56:37;;;;;;;7.03;2.80;;;29.70;55.90;;;;;;5093520;28;20413;-89
2022/08/02 12:59:04;;;;;;;6.72;2.63;;;29.80;56.10;;;;;;5092258;28;20178;-89
2022/08/02 13:01:30;;;;;;;4.88;2.70;;;29.80;56.40;;;;;;5110818;28;20166;-89
2022/08/02 13:03:56;;;;;;;7.75;2.55;;;29.80;56.40;;;;;;5093086;28;20210;-88
2022/08/02 13:06:23;;;;;;;5.18;2.45;;;29.70;56.70;;;;;;5094542;28;20551;-88
2022/08/02 13:08:50;;;;;;;8.10;2.63;;;29.80;56.50;;;;;;5094463;28;20185;-88
2022/08/02 13:11:16;;;;;;;6.93;2.20;;;29.70;56.10;;;;;;5091881;28;20166;-88
2022/08/02 13:13:42;;;;;;;7.00;2.55;;;29.80;55.90;;;;;;5092415;28;20261;-90
2022/08/02 13:16:11;;;;;;;8.07;2.35;;;29.80;56.10;;;;;;5110885;28;20328;-88
2022/08/02 13:18:37;;;;;;;5.28;2.60;;;29.80;56.00;;;;;;5092225;28;20174;-89
2022/08/02 13:21:05;;;;;;;4.93;2.40;;;29.70;55.90;;;;;;5093246;28;20173;-89
2022/08/02 13:23:32;;;;;;;6.65;2.35;;;29.60;56.50;;;;;;5078523;28;20230;-89
2022/08/02 13:25:58;;;;;;;3.60;2.40;;;29.60;56.20;;;;;;5094200;28;20181;-89
2022/08/02 13:28:24;;;;;;;8.60;2.78;;;29.70;55.20;;;;;;5110983;28;20323;-89
2022/08/02 13:30:50;;;;;;;4.25;2.65;;;29.70;56.60;;;;;;5092392;28;20481;-90
2022/08/02 13:33:17;;;;;;;5.63;2.70;;;29.70;55.70;;;;;;5093144;28;20435;-89
2022/08/02 13:35:44;;;;;;;6.97;2.75;;;29.70;56.40;;;;;;5093249;28;20173;-90
2022/08/02 13:38:09;;;;;;;3.22;2.50;;;29.60;56.00;;;;;;5091185;28;20567;-90
2022/08/02 13:43:20;;;;;;;7.55;2.80;;;29.70;56.40;;;;;;5109752;28;20207;-89
2022/08/02 13:45:46;;;;;;;4.97;2.47;;;29.70;56.70;;;;;;5091425;28;20174;-89
2022/08/02 13:48:12;;;;;;;4.13;2.97;;;29.70;54.90;;;;;;5092333;28;20635;-89
2022/08/02 13:50:37;;;;;;;6.10;2.97;;;29.70;55.10;;;;;;5093294;28;20202;-89
2022/08/02 13:53:03;;;;;;;6.63;3.08;;;29.70;55.50;;;;;;5092303;28;20408;-89
2022/08/02 13:55:29;;;;;;;12.23;3.40;;;29.70;56.20;;;;;;5092243;28;20219;-89
2022/08/02 13:57:55;;;;;;;4.75;2.80;;;29.60;56.50;;;;;;5093581;28;20166;-89
2022/08/02 14:00:24;;;;;;;12.80;5.93;;;29.50;56.20;;;;;;5092659;28;20179;-89
2022/08/02 14:02:49;;;;;;;26.27;10.80;;;29.50;57.00;;;;;;5093774;28;20174;-89
2022/08/02 14:05:15;;;;;;;29.05;14.20;;;29.50;56.30;;;;;;5092352;28;20188;-89